logo
Search for airport 
image banner adimage banner adimage banner ad
image banner ad

MRSQ - Sarapiqui

Located in Sarapiqui, Costa Rica

ICAO - MRSQ, IATA -

Data provided by Airmate  

General information

Coordinates: N10°28'16" W83°54'26"
Elevation is 164 feet MSL.
 
View others Airports in Heredia

Operational data

Special qualification required
Current time UTC:
Current local time:
Weather at : MROC - Juan Santamaria Intl ( 62 km )
METAR: MROC 140000Z 08016G26KT 9999 FEW030 SCT200 24/16 A3002 NOSIG
TAF: MROC 132350Z 1400/1424 08020G32KT 9999 FEW030 TX31/1419Z TN21/1411Z
View NOTAMs / SUP AIP / TFR affecting this airport [VIEW]
Communications frequencies: [VIEW]

Runways:

RWY identifierQFULength (ft)Width (ft)SurfaceLDA (ft)
0500UNK
2300UNK

Airport contact information

Address: Sarapiqui Costa Rica

Satellite view of MRSQ